createdAt,value
2018-03-27T00:03:38.618Z,11.80
2018-03-27T00:08:39.679Z,12.07
2018-03-27T00:13:40.871Z,10.03
2018-03-27T00:18:42.024Z,9.53
2018-03-27T00:23:43.060Z,10.20
2018-03-27T00:28:56.356Z,8.40
2018-03-27T00:34:09.835Z,10.10
2018-03-27T00:39:23.377Z,8.30
2018-03-27T00:44:24.472Z,8.27
2018-03-27T00:49:25.636Z,8.17
2018-03-27T00:54:26.667Z,8.00
2018-03-27T00:59:27.838Z,8.10
2018-03-27T01:04:29.602Z,8.03
2018-03-27T01:09:30.653Z,8.07
2018-03-27T01:14:31.729Z,7.50
2018-03-27T01:19:32.802Z,7.57
2018-03-27T01:24:33.901Z,7.30
2018-03-27T01:29:34.889Z,7.20
2018-03-27T01:34:35.900Z,8.90
2018-03-27T01:39:36.923Z,9.33
2018-03-27T01:44:37.944Z,10.33
2018-03-27T01:49:38.950Z,10.40
2018-03-27T01:54:40.719Z,11.50
2018-03-27T01:59:42.471Z,11.00
2018-03-27T02:04:43.505Z,10.40
2018-03-27T02:09:44.550Z,10.30
2018-03-27T02:14:51.608Z,13.33
2018-03-27T02:19:58.647Z,17.20
2018-03-27T02:24:59.769Z,17.70
2018-03-27T02:30:01.652Z,15.57
2018-03-27T02:35:03.412Z,11.47
2018-03-27T02:40:04.520Z,10.00
2018-03-27T02:45:05.774Z,9.97
2018-03-27T02:50:06.852Z,9.30
2018-03-27T02:55:08.147Z,10.20
2018-03-27T03:00:09.217Z,11.30
2018-03-27T03:05:10.416Z,12.13
2018-03-27T03:10:11.535Z,11.10
2018-03-27T03:15:12.695Z,13.43
2018-03-27T03:20:13.734Z,15.97
2018-03-27T03:25:14.815Z,23.13
2018-03-27T03:30:15.920Z,24.40
2018-03-27T03:35:17.051Z,23.63
2018-03-27T03:40:18.817Z,23.87
2018-03-27T03:45:20.791Z,22.60
2018-03-27T03:50:21.849Z,20.60
2018-03-27T03:55:23.048Z,23.47
2018-03-27T04:00:24.140Z,23.00
2018-03-27T04:05:25.107Z,22.23
2018-03-27T04:10:26.094Z,20.93
2018-03-27T04:15:27.847Z,20.77
2018-03-27T04:20:29.591Z,18.43
2018-03-27T04:25:30.621Z,18.73
2018-03-27T04:30:32.345Z,18.43
2018-03-27T04:35:33.355Z,20.47
2018-03-27T04:40:35.094Z,17.93
2018-03-27T04:45:36.075Z,19.73
2018-03-27T04:50:37.812Z,19.57
2018-03-27T04:55:38.808Z,19.57
2018-03-27T05:00:40.546Z,18.10
2018-03-27T05:05:41.551Z,19.30
2018-03-27T05:10:43.357Z,18.73
2018-03-27T05:15:44.363Z,16.23
2018-03-27T05:20:45.371Z,15.67
2018-03-27T05:25:46.387Z,14.30
2018-03-27T05:30:47.427Z,14.87
2018-03-27T05:35:48.482Z,14.17
2018-03-27T05:40:49.491Z,18.07
2018-03-27T05:45:50.481Z,16.27
2018-03-27T05:50:51.495Z,16.40
2018-03-27T05:55:53.304Z,16.23
2018-03-27T06:00:54.308Z,18.00
2018-03-27T06:05:55.316Z,18.27
2018-03-27T06:10:56.321Z,18.90
2018-03-27T06:15:58.109Z,19.33
2018-03-27T06:20:59.863Z,19.23
2018-03-27T06:26:00.890Z,18.97
2018-03-27T06:31:01.892Z,17.30
2018-03-27T06:36:03.639Z,16.60
2018-03-27T06:41:04.622Z,19.80
2018-03-27T06:46:05.635Z,22.50
2018-03-27T06:51:06.645Z,24.57
2018-03-27T06:56:08.403Z,26.33
2018-03-27T07:01:09.403Z,25.83
2018-03-27T07:06:10.420Z,25.70
2018-03-27T07:11:11.436Z,25.97
2018-03-27T07:16:12.833Z,29.17
2018-03-27T07:21:15.036Z,29.30
2018-03-27T07:26:16.972Z,30.60
2018-03-27T07:31:18.204Z,28.67
2018-03-27T07:36:19.195Z,28.40
2018-03-27T07:41:20.175Z,24.20
2018-03-27T07:46:21.235Z,24.80
2018-03-27T07:51:22.333Z,23.87
2018-03-27T07:56:24.060Z,22.90
2018-03-27T08:01:25.059Z,24.53
2018-03-27T08:06:26.804Z,24.97
2018-03-27T08:11:27.791Z,27.13
2018-03-27T08:16:29.532Z,26.93
2018-03-27T08:21:30.532Z,27.10
2018-03-27T08:26:31.515Z,26.30
2018-03-27T08:31:32.500Z,24.53
2018-03-27T08:36:33.496Z,24.77
2018-03-27T08:41:34.495Z,25.80
2018-03-27T08:46:35.492Z,26.10
2018-03-27T08:51:36.597Z,27.30
2018-03-27T08:56:37.599Z,27.17
2018-03-27T09:01:38.623Z,25.10
2018-03-27T09:06:39.658Z,22.73
2018-03-27T09:11:40.657Z,25.63
2018-03-27T09:16:41.675Z,23.93
2018-03-27T09:21:42.675Z,24.27
2018-03-27T09:26:43.693Z,26.00
2018-03-27T09:31:44.789Z,23.07
2018-03-27T09:36:45.811Z,24.20
2018-03-27T09:41:46.836Z,25.93
2018-03-27T09:46:47.819Z,23.80
2018-03-27T09:51:48.845Z,24.53
2018-03-27T09:56:49.855Z,22.60
2018-03-27T10:01:50.867Z,21.30
2018-03-27T10:06:54.451Z,20.80
2018-03-27T10:11:56.087Z,21.90
2018-03-27T10:16:57.140Z,21.73
2018-03-27T10:21:58.143Z,16.40
2018-03-27T10:26:59.160Z,17.00
2018-03-27T10:32:00.248Z,16.07
2018-03-27T10:37:01.262Z,17.90
2018-03-27T10:42:03.041Z,16.27
2018-03-27T10:47:04.805Z,16.03
2018-03-27T10:52:07.991Z,14.80
2018-03-27T10:57:09.029Z,13.30
2018-03-27T11:02:10.092Z,16.30
2018-03-27T11:07:11.197Z,14.83
2018-03-27T11:12:12.232Z,15.10
2018-03-27T11:17:13.267Z,15.00
2018-03-27T11:22:14.298Z,14.30
2018-03-27T11:27:21.776Z,13.97
2018-03-27T11:32:23.523Z,14.73
2018-03-27T11:37:24.519Z,13.03
2018-03-27T11:42:26.453Z,12.87
2018-03-27T11:47:27.534Z,13.13
2018-03-27T11:52:29.276Z,13.20
2018-03-27T11:57:30.316Z,13.67
2018-03-27T12:02:31.384Z,15.17
2018-03-27T12:07:32.430Z,14.90
2018-03-27T12:12:33.456Z,14.87
2018-03-27T12:17:34.710Z,14.87
2018-03-27T12:22:35.743Z,13.53
2018-03-27T12:27:37.131Z,14.50
2018-03-27T12:32:38.881Z,15.50
2018-03-27T12:37:39.875Z,15.30
2018-03-27T12:42:42.689Z,15.00
2018-03-27T12:47:43.990Z,16.23
2018-03-27T12:52:46.659Z,15.90
2018-03-27T12:57:47.731Z,17.17
2018-03-27T13:02:48.866Z,17.43
2018-03-27T13:07:50.818Z,16.30
2018-03-27T13:12:51.942Z,14.90
2018-03-27T13:17:52.938Z,14.87
2018-03-27T13:22:53.931Z,16.33
2018-03-27T13:27:54.964Z,15.13
2018-03-27T13:32:56.021Z,16.77
2018-03-27T13:37:57.053Z,16.87
2018-03-27T13:42:58.287Z,16.77
2018-03-27T13:48:06.124Z,17.47
2018-03-27T13:53:13.445Z,16.83
2018-03-27T13:58:20.527Z,17.60
2018-03-27T14:03:29.551Z,17.13
2018-03-27T14:08:36.771Z,17.30
2018-03-27T14:13:43.951Z,16.50
2018-03-27T14:18:51.124Z,16.47
2018-03-27T14:23:59.083Z,15.17
2018-03-27T14:29:06.360Z,17.10
2018-03-27T14:34:13.559Z,16.40
2018-03-27T14:39:21.528Z,15.33
2018-03-27T14:44:29.447Z,15.40
2018-03-27T14:49:36.541Z,14.57
2018-03-27T14:54:43.783Z,14.77
2018-03-27T14:59:50.965Z,15.90
2018-03-27T15:04:58.230Z,15.73
2018-03-27T15:10:05.433Z,13.87
2018-03-27T15:15:12.747Z,14.60
2018-03-27T15:20:19.925Z,12.93
2018-03-27T15:25:27.800Z,13.57
2018-03-27T15:30:34.975Z,14.10
2018-03-27T15:35:42.066Z,14.97
2018-03-27T15:40:43.188Z,14.27
2018-03-27T15:45:44.953Z,16.17
2018-03-27T15:50:46.019Z,15.27
2018-03-27T15:55:47.064Z,15.43
2018-03-27T16:00:48.231Z,15.77
2018-03-27T16:05:49.405Z,18.23
2018-03-27T16:10:50.791Z,18.10
2018-03-27T16:15:52.013Z,17.13
2018-03-27T16:20:53.067Z,17.30
2018-03-27T16:25:55.119Z,15.10
2018-03-27T16:30:56.136Z,14.40
2018-03-27T16:35:57.262Z,16.83
2018-03-27T16:40:58.403Z,18.27
2018-03-27T16:45:59.400Z,17.90
2018-03-27T16:51:01.201Z,18.63
2018-03-27T16:56:03.250Z,18.30
2018-03-27T17:01:04.427Z,18.97
2018-03-27T17:06:05.460Z,19.63
2018-03-27T17:11:06.487Z,20.27
2018-03-27T17:16:07.712Z,19.50
2018-03-27T17:21:08.825Z,19.57
2018-03-27T17:26:10.129Z,16.90
2018-03-27T17:31:11.228Z,19.20
2018-03-27T17:36:12.227Z,18.57
2018-03-27T17:41:13.444Z,20.17
2018-03-27T17:46:14.553Z,19.20
2018-03-27T17:51:15.586Z,20.27
2018-03-27T17:56:16.592Z,18.70
2018-03-27T18:01:19.016Z,16.50
2018-03-27T18:06:20.121Z,16.90
2018-03-27T18:11:21.173Z,14.63
2018-03-27T18:16:22.189Z,16.43
2018-03-27T18:21:23.212Z,17.63
2018-03-27T18:26:24.203Z,17.40
2018-03-27T18:31:25.972Z,17.97
2018-03-27T18:36:30.303Z,20.30
2018-03-27T18:41:32.406Z,18.67
2018-03-27T18:46:33.409Z,20.20
2018-03-27T18:51:38.939Z,21.80
2018-03-27T18:56:40.100Z,20.80
2018-03-27T19:01:41.116Z,20.80
2018-03-27T19:06:42.136Z,20.97
2018-03-27T19:11:43.148Z,19.93
2018-03-27T19:16:44.211Z,20.80
2018-03-27T19:21:45.347Z,21.10
2018-03-27T19:26:47.104Z,19.63
2018-03-27T19:31:48.127Z,21.30
2018-03-27T19:36:49.172Z,20.30
2018-03-27T19:41:50.251Z,20.00
2018-03-27T19:46:51.323Z,18.97
2018-03-27T19:51:52.340Z,20.40
2018-03-27T19:56:53.399Z,21.37
2018-03-27T20:01:54.748Z,22.70
2018-03-27T20:06:55.834Z,21.73
2018-03-27T20:11:56.907Z,20.60
2018-03-27T20:16:58.117Z,22.90
2018-03-27T20:21:59.870Z,21.63
2018-03-27T20:27:00.867Z,20.87
2018-03-27T20:32:02.614Z,23.67
2018-03-27T20:37:05.214Z,26.17
2018-03-27T20:42:08.079Z,28.37
2018-03-27T20:47:09.136Z,25.73
2018-03-27T20:52:10.179Z,24.90
2018-03-27T20:57:11.404Z,25.07
2018-03-27T21:02:12.565Z,22.83
2018-03-27T21:07:14.348Z,26.67
2018-03-27T21:12:15.424Z,24.93
2018-03-27T21:17:17.195Z,25.57
2018-03-27T21:22:18.235Z,26.10
2018-03-27T21:27:20.088Z,27.43
2018-03-27T21:32:21.088Z,29.03
2018-03-27T21:37:22.844Z,28.67
2018-03-27T21:42:23.874Z,26.57
2018-03-27T21:47:24.880Z,26.67
2018-03-27T21:52:26.603Z,24.30
2018-03-27T21:57:27.611Z,24.23
2018-03-27T22:02:28.656Z,23.60
2018-03-27T22:07:29.659Z,23.57
2018-03-27T22:12:30.676Z,22.30
2018-03-27T22:17:31.664Z,21.57
2018-03-27T22:22:32.636Z,23.73
2018-03-27T22:27:33.628Z,24.57
2018-03-27T22:32:34.644Z,25.50
2018-03-27T22:37:35.688Z,26.90
2018-03-27T22:42:36.707Z,26.77
2018-03-27T22:47:37.724Z,25.13
2018-03-27T22:52:38.719Z,24.07
2018-03-27T22:57:39.779Z,28.13
2018-03-27T23:02:41.551Z,29.27
2018-03-27T23:07:42.575Z,27.20
2018-03-27T23:12:43.567Z,28.30
2018-03-27T23:17:44.627Z,29.37
2018-03-27T23:22:45.722Z,27.40
2018-03-27T23:27:46.800Z,28.17
2018-03-27T23:32:47.835Z,31.57
2018-03-27T23:37:49.571Z,29.93
2018-03-27T23:42:50.596Z,33.17
2018-03-27T23:47:51.624Z,35.83
2018-03-27T23:52:52.723Z,29.83
2018-03-27T23:57:53.783Z,30.70
